sensor_id;sensor_type;location;lat;lon;timestamp;temperature;humidity
47162;DHT22;32921;53.256;8.198;2022-12-16T00:00:15;-0.80;99.90
47162;DHT22;32921;53.256;8.198;2022-12-16T00:02:41;-0.70;99.90
47162;DHT22;32921;53.256;8.198;2022-12-16T00:05:07;-0.70;99.90
47162;DHT22;32921;53.256;8.198;2022-12-16T00:07:33;-0.70;99.90
47162;DHT22;32921;53.256;8.198;2022-12-16T00:09:59;-0.60;99.90
47162;DHT22;32921;53.256;8.198;2022-12-16T00:12:25;-0.60;99.90
47162;DHT22;32921;53.256;8.198;2022-12-16T00:14:50;-0.50;99.90
47162;DHT22;32921;53.256;8.198;2022-12-16T00:17:16;-0.60;99.90
47162;DHT22;32921;53.256;8.198;2022-12-16T00:19:42;-0.50;99.90
47162;DHT22;32921;53.256;8.198;2022-12-16T00:22:07;-0.50;99.90
47162;DHT22;32921;53.256;8.198;2022-12-16T00:24:33;-0.60;99.90
47162;DHT22;32921;53.256;8.198;2022-12-16T00:26:58;-0.60;99.90
47162;DHT22;32921;53.256;8.198;2022-12-16T00:29:24;-0.60;99.90
47162;DHT22;32921;53.256;8.198;2022-12-16T00:31:49;-0.60;99.90
47162;DHT22;32921;53.256;8.198;2022-12-16T00:34:15;-0.60;99.90
47162;DHT22;32921;53.256;8.198;2022-12-16T00:36:41;-0.70;99.90
47162;DHT22;32921;53.256;8.198;2022-12-16T00:39:09;-0.60;99.90
47162;DHT22;32921;53.256;8.198;2022-12-16T00:41:35;-0.70;99.90
47162;DHT22;32921;53.256;8.198;2022-12-16T00:44:00;-0.70;99.90
47162;DHT22;32921;53.256;8.198;2022-12-16T00:46:26;-0.60;99.90
47162;DHT22;32921;53.256;8.198;2022-12-16T00:48:51;-0.70;99.90
47162;DHT22;32921;53.256;8.198;2022-12-16T00:51:17;-0.60;99.90
47162;DHT22;32921;53.256;8.198;2022-12-16T00:53:43;-0.70;99.90
47162;DHT22;32921;53.256;8.198;2022-12-16T00:56:10;-0.70;99.90
47162;DHT22;32921;53.256;8.198;2022-12-16T00:58:36;-0.80;99.90
47162;DHT22;32921;53.256;8.198;2022-12-16T01:01:03;-0.70;99.90
47162;DHT22;32921;53.256;8.198;2022-12-16T01:03:29;-0.70;99.90
47162;DHT22;32921;53.256;8.198;2022-12-16T01:05:54;-0.60;99.90
47162;DHT22;32921;53.256;8.198;2022-12-16T01:08:20;-0.70;99.90
47162;DHT22;32921;53.256;8.198;2022-12-16T01:10:56;-0.70;99.90
47162;DHT22;32921;53.256;8.198;2022-12-16T01:13:23;-0.80;99.90
47162;DHT22;32921;53.256;8.198;2022-12-16T01:15:49;-0.70;99.90
47162;DHT22;32921;53.256;8.198;2022-12-16T01:18:16;-0.80;99.90
47162;DHT22;32921;53.256;8.198;2022-12-16T01:20:41;-0.80;99.90
47162;DHT22;32921;53.256;8.198;2022-12-16T01:23:07;-0.70;99.90
47162;DHT22;32921;53.256;8.198;2022-12-16T01:25:33;-0.80;99.90
47162;DHT22;32921;53.256;8.198;2022-12-16T01:27:58;-0.70;99.90
47162;DHT22;32921;53.256;8.198;2022-12-16T01:30:24;-0.70;99.90
47162;DHT22;32921;53.256;8.198;2022-12-16T01:32:50;-0.70;99.90
47162;DHT22;32921;53.256;8.198;2022-12-16T01:35:15;-0.80;99.90
47162;DHT22;32921;53.256;8.198;2022-12-16T01:37:41;-0.80;99.90
47162;DHT22;32921;53.256;8.198;2022-12-16T01:40:07;-0.80;99.90
47162;DHT22;32921;53.256;8.198;2022-12-16T01:42:38;-0.70;99.90
47162;DHT22;32921;53.256;8.198;2022-12-16T01:47:56;-0.80;99.90
47162;DHT22;32921;53.256;8.198;2022-12-16T01:50:23;-0.80;99.90
47162;DHT22;32921;53.256;8.198;2022-12-16T01:52:52;-0.80;99.90
47162;DHT22;32921;53.256;8.198;2022-12-16T01:55:27;-0.80;99.90
47162;DHT22;32921;53.256;8.198;2022-12-16T01:57:59;-0.80;99.90
47162;DHT22;32921;53.256;8.198;2022-12-16T02:00:40;-0.70;99.90
47162;DHT22;32921;53.256;8.198;2022-12-16T02:03:06;-0.70;99.90
47162;DHT22;32921;53.256;8.198;2022-12-16T02:05:38;-0.70;99.90
47162;DHT22;32921;53.256;8.198;2022-12-16T02:16:15;-0.80;99.90
47162;DHT22;32921;53.256;8.198;2022-12-16T02:21:25;-0.70;99.90
47162;DHT22;32921;53.256;8.198;2022-12-16T02:27:48;-0.70;99.90
47162;DHT22;32921;53.256;8.198;2022-12-16T02:30:00;-0.70;99.90
47162;DHT22;32921;53.256;8.198;2022-12-16T02:35:45;-0.70;99.90
47162;DHT22;32921;53.256;8.198;2022-12-16T02:44:05;-0.70;99.90
47162;DHT22;32921;53.256;8.198;2022-12-16T02:46:32;-0.70;99.90
47162;DHT22;32921;53.256;8.198;2022-12-16T02:49:39;-0.70;99.90
47162;DHT22;32921;53.256;8.198;2022-12-16T02:51:58;-0.80;99.90
47162;DHT22;32921;53.256;8.198;2022-12-16T02:54:25;-0.90;99.90
47162;DHT22;32921;53.256;8.198;2022-12-16T02:57:07;-0.90;99.90
47162;DHT22;32921;53.256;8.198;2022-12-16T03:05:33;-0.70;99.90
47162;DHT22;32921;53.256;8.198;2022-12-16T03:08:04;-0.50;99.90
47162;DHT22;32921;53.256;8.198;2022-12-16T03:10:35;-0.50;99.90
47162;DHT22;32921;53.256;8.198;2022-12-16T03:13:03;-0.50;99.90
47162;DHT22;32921;53.256;8.198;2022-12-16T03:15:31;-0.60;99.90
47162;DHT22;32921;53.256;8.198;2022-12-16T03:18:00;-0.60;99.90
47162;DHT22;32921;53.256;8.198;2022-12-16T03:20:49;-0.50;99.90
47162;DHT22;32921;53.256;8.198;2022-12-16T03:23:20;-0.50;99.90
47162;DHT22;32921;53.256;8.198;2022-12-16T03:25:48;-0.50;99.90
47162;DHT22;32921;53.256;8.198;2022-12-16T03:28:31;-0.50;99.90
47162;DHT22;32921;53.256;8.198;2022-12-16T03:31:21;-0.60;99.90
47162;DHT22;32921;53.256;8.198;2022-12-16T03:33:56;-0.60;99.90
47162;DHT22;32921;53.256;8.198;2022-12-16T03:36:25;-0.60;99.90
47162;DHT22;32921;53.256;8.198;2022-12-16T03:38:52;-0.60;99.90
47162;DHT22;32921;53.256;8.198;2022-12-16T03:41:22;-0.60;99.90
47162;DHT22;32921;53.256;8.198;2022-12-16T03:43:48;-0.50;99.90
47162;DHT22;32921;53.256;8.198;2022-12-16T03:46:15;-0.50;99.90
47162;DHT22;32921;53.256;8.198;2022-12-16T03:48:53;-0.60;99.90
47162;DHT22;32921;53.256;8.198;2022-12-16T03:51:19;-0.60;99.90
47162;DHT22;32921;53.256;8.198;2022-12-16T03:53:45;-0.60;99.90
47162;DHT22;32921;53.256;8.198;2022-12-16T03:56:11;-0.50;99.90
47162;DHT22;32921;53.256;8.198;2022-12-16T03:58:38;-0.50;99.90
47162;DHT22;32921;53.256;8.198;2022-12-16T04:01:06;-0.60;99.90
47162;DHT22;32921;53.256;8.198;2022-12-16T04:03:32;-0.60;99.90
47162;DHT22;32921;53.256;8.198;2022-12-16T04:05:57;-0.60;99.90
47162;DHT22;32921;53.256;8.198;2022-12-16T04:08:23;-0.50;99.90
47162;DHT22;32921;53.256;8.198;2022-12-16T04:10:53;-0.60;99.90
47162;DHT22;32921;53.256;8.198;2022-12-16T04:13:37;-0.50;99.90
47162;DHT22;32921;53.256;8.198;2022-12-16T04:16:22;-0.60;99.90
47162;DHT22;32921;53.256;8.198;2022-12-16T04:19:15;-0.60;99.90
47162;DHT22;32921;53.256;8.198;2022-12-16T04:22:00;-0.60;99.90
47162;DHT22;32921;53.256;8.198;2022-12-16T04:24:44;-0.70;99.90
47162;DHT22;32921;53.256;8.198;2022-12-16T04:27:10;-0.70;99.90
47162;DHT22;32921;53.256;8.198;2022-12-16T04:29:53;-0.60;99.90
47162;DHT22;32921;53.256;8.198;2022-12-16T04:32:38;-0.60;99.90
47162;DHT22;32921;53.256;8.198;2022-12-16T04:35:22;-0.60;99.90
47162;DHT22;32921;53.256;8.198;2022-12-16T04:38:07;-0.80;99.90
47162;DHT22;32921;53.256;8.198;2022-12-16T04:40:51;-0.80;99.90
47162;DHT22;32921;53.256;8.198;2022-12-16T04:43:35;-0.80;99.90
47162;DHT22;32921;53.256;8.198;2022-12-16T04:46:19;-0.80;99.90
47162;DHT22;32921;53.256;8.198;2022-12-16T04:49:03;-0.80;99.90
47162;DHT22;32921;53.256;8.198;2022-12-16T04:52:00;-0.80;99.90
47162;DHT22;32921;53.256;8.198;2022-12-16T04:54:45;-0.90;99.90
47162;DHT22;32921;53.256;8.198;2022-12-16T04:57:29;-0.90;99.90
47162;DHT22;32921;53.256;8.198;2022-12-16T05:00:13;-0.80;99.90
47162;DHT22;32921;53.256;8.198;2022-12-16T05:02:57;-0.80;99.90
47162;DHT22;32921;53.256;8.198;2022-12-16T05:05:41;-0.90;99.90
47162;DHT22;32921;53.256;8.198;2022-12-16T05:08:25;-0.90;99.90
47162;DHT22;32921;53.256;8.198;2022-12-16T05:11:09;-0.90;99.90
47162;DHT22;32921;53.256;8.198;2022-12-16T05:13:53;-0.90;99.90
47162;DHT22;32921;53.256;8.198;2022-12-16T05:16:38;-0.90;99.90
47162;DHT22;32921;53.256;8.198;2022-12-16T05:19:22;-0.90;99.90
47162;DHT22;32921;53.256;8.198;2022-12-16T05:22:06;-0.90;99.90
47162;DHT22;32921;53.256;8.198;2022-12-16T05:24:50;-0.90;99.90
47162;DHT22;32921;53.256;8.198;2022-12-16T05:27:34;-0.80;99.90
47162;DHT22;32921;53.256;8.198;2022-12-16T05:30:18;-0.90;99.90
47162;DHT22;32921;53.256;8.198;2022-12-16T05:33:02;-0.80;99.90
47162;DHT22;32921;53.256;8.198;2022-12-16T05:35:46;-0.80;99.90
47162;DHT22;32921;53.256;8.198;2022-12-16T05:38:30;-0.70;99.90
47162;DHT22;32921;53.256;8.198;2022-12-16T05:41:15;-0.80;99.90
47162;DHT22;32921;53.256;8.198;2022-12-16T05:43:59;-0.80;99.90
47162;DHT22;32921;53.256;8.198;2022-12-16T05:46:43;-0.80;99.90
47162;DHT22;32921;53.256;8.198;2022-12-16T05:49:27;-0.70;99.90
47162;DHT22;32921;53.256;8.198;2022-12-16T05:52:11;-0.60;99.90
47162;DHT22;32921;53.256;8.198;2022-12-16T05:54:55;-0.70;99.90
47162;DHT22;32921;53.256;8.198;2022-12-16T05:57:39;-0.60;99.90
47162;DHT22;32921;53.256;8.198;2022-12-16T06:00:23;-0.70;99.90
47162;DHT22;32921;53.256;8.198;2022-12-16T06:03:07;-0.70;99.90
47162;DHT22;32921;53.256;8.198;2022-12-16T06:05:51;-0.80;99.90
47162;DHT22;32921;53.256;8.198;2022-12-16T06:08:35;-0.80;99.90
47162;DHT22;32921;53.256;8.198;2022-12-16T06:11:20;-0.80;99.90
47162;DHT22;32921;53.256;8.198;2022-12-16T06:14:04;-0.80;99.90
47162;DHT22;32921;53.256;8.198;2022-12-16T06:16:48;-0.80;99.90
47162;DHT22;32921;53.256;8.198;2022-12-16T06:19:32;-0.60;99.90
47162;DHT22;32921;53.256;8.198;2022-12-16T06:22:16;-0.60;99.90
47162;DHT22;32921;53.256;8.198;2022-12-16T06:25:00;-0.80;99.90
47162;DHT22;32921;53.256;8.198;2022-12-16T06:27:49;-0.90;99.90
47162;DHT22;32921;53.256;8.198;2022-12-16T06:30:33;-0.70;99.90
47162;DHT22;32921;53.256;8.198;2022-12-16T06:33:17;-0.60;99.90
47162;DHT22;32921;53.256;8.198;2022-12-16T06:36:02;-0.60;99.90
47162;DHT22;32921;53.256;8.198;2022-12-16T06:38:45;-0.70;99.90
47162;DHT22;32921;53.256;8.198;2022-12-16T06:41:29;-0.70;99.90
47162;DHT22;32921;53.256;8.198;2022-12-16T06:44:14;-0.80;99.90
47162;DHT22;32921;53.256;8.198;2022-12-16T06:46:58;-0.70;99.90
47162;DHT22;32921;53.256;8.198;2022-12-16T06:49:42;-0.80;99.90
47162;DHT22;32921;53.256;8.198;2022-12-16T06:52:26;-0.80;99.90
47162;DHT22;32921;53.256;8.198;2022-12-16T06:55:10;-0.80;99.90
47162;DHT22;32921;53.256;8.198;2022-12-16T06:57:58;-0.70;99.90
47162;DHT22;32921;53.256;8.198;2022-12-16T07:00:42;-0.70;99.90
47162;DHT22;32921;53.256;8.198;2022-12-16T07:03:26;-0.70;99.90
47162;DHT22;32921;53.256;8.198;2022-12-16T07:06:10;-0.70;99.90
47162;DHT22;32921;53.256;8.198;2022-12-16T07:08:54;-0.80;99.90
47162;DHT22;32921;53.256;8.198;2022-12-16T07:11:38;-0.80;99.90
47162;DHT22;32921;53.256;8.198;2022-12-16T07:14:22;-0.90;99.90
47162;DHT22;32921;53.256;8.198;2022-12-16T07:17:07;-0.90;99.90
47162;DHT22;32921;53.256;8.198;2022-12-16T07:19:50;-0.90;99.90
47162;DHT22;32921;53.256;8.198;2022-12-16T07:22:34;-0.90;99.90
47162;DHT22;32921;53.256;8.198;2022-12-16T07:25:18;-0.90;99.90
47162;DHT22;32921;53.256;8.198;2022-12-16T07:28:03;-0.90;99.90
47162;DHT22;32921;53.256;8.198;2022-12-16T07:30:47;-0.90;99.90
47162;DHT22;32921;53.256;8.198;2022-12-16T07:33:31;-0.90;99.90
47162;DHT22;32921;53.256;8.198;2022-12-16T07:36:15;-0.90;99.90
47162;DHT22;32921;53.256;8.198;2022-12-16T07:38:59;-0.90;99.90
47162;DHT22;32921;53.256;8.198;2022-12-16T07:41:43;-0.90;99.90
47162;DHT22;32921;53.256;8.198;2022-12-16T07:44:27;-0.90;99.90
47162;DHT22;32921;53.256;8.198;2022-12-16T07:47:11;-0.90;99.90
47162;DHT22;32921;53.256;8.198;2022-12-16T07:49:55;-1.00;99.90
47162;DHT22;32921;53.256;8.198;2022-12-16T07:52:39;-1.00;99.90
47162;DHT22;32921;53.256;8.198;2022-12-16T07:55:23;-1.10;99.90
47162;DHT22;32921;53.256;8.198;2022-12-16T07:58:08;-1.00;99.90
47162;DHT22;32921;53.256;8.198;2022-12-16T08:00:52;-1.00;99.90
47162;DHT22;32921;53.256;8.198;2022-12-16T08:03:36;-1.10;99.90
47162;DHT22;32921;53.256;8.198;2022-12-16T08:06:20;-1.10;99.90
47162;DHT22;32921;53.256;8.198;2022-12-16T08:09:04;-1.00;99.90
47162;DHT22;32921;53.256;8.198;2022-12-16T08:11:48;-0.90;99.90
47162;DHT22;32921;53.256;8.198;2022-12-16T08:14:32;-0.80;99.90
47162;DHT22;32921;53.256;8.198;2022-12-16T08:17:16;-0.80;99.90
47162;DHT22;32921;53.256;8.198;2022-12-16T08:20:00;-0.80;99.90
47162;DHT22;32921;53.256;8.198;2022-12-16T08:22:44;-0.80;99.90
47162;DHT22;32921;53.256;8.198;2022-12-16T08:25:28;-0.90;99.90
47162;DHT22;32921;53.256;8.198;2022-12-16T08:28:12;-0.90;99.90
47162;DHT22;32921;53.256;8.198;2022-12-16T08:30:56;-0.80;99.90
47162;DHT22;32921;53.256;8.198;2022-12-16T08:33:40;-0.80;99.90
47162;DHT22;32921;53.256;8.198;2022-12-16T08:36:24;-0.70;99.90
47162;DHT22;32921;53.256;8.198;2022-12-16T08:39:08;-0.60;99.90
47162;DHT22;32921;53.256;8.198;2022-12-16T08:41:52;-0.70;99.90
47162;DHT22;32921;53.256;8.198;2022-12-16T08:44:36;-0.80;99.90
47162;DHT22;32921;53.256;8.198;2022-12-16T08:47:20;-0.70;99.90
47162;DHT22;32921;53.256;8.198;2022-12-16T08:50:04;-0.60;99.90
47162;DHT22;32921;53.256;8.198;2022-12-16T08:52:48;-0.70;99.90
47162;DHT22;32921;53.256;8.198;2022-12-16T08:55:32;-0.60;99.90
47162;DHT22;32921;53.256;8.198;2022-12-16T08:58:16;-0.70;99.90
47162;DHT22;32921;53.256;8.198;2022-12-16T09:01:01;-0.70;99.90
47162;DHT22;32921;53.256;8.198;2022-12-16T09:03:45;-0.70;99.90
47162;DHT22;32921;53.256;8.198;2022-12-16T09:06:29;-0.60;99.90
47162;DHT22;32921;53.256;8.198;2022-12-16T09:09:17;-0.60;99.90
47162;DHT22;32921;53.256;8.198;2022-12-16T09:12:02;-0.40;99.90
47162;DHT22;32921;53.256;8.198;2022-12-16T09:14:46;-0.40;99.90
47162;DHT22;32921;53.256;8.198;2022-12-16T09:17:30;-0.40;99.90
47162;DHT22;32921;53.256;8.198;2022-12-16T09:20:14;-0.40;99.90
47162;DHT22;32921;53.256;8.198;2022-12-16T09:23:01;-0.40;99.90
47162;DHT22;32921;53.256;8.198;2022-12-16T09:25:45;-0.30;99.90
47162;DHT22;32921;53.256;8.198;2022-12-16T09:28:29;-0.30;99.90
47162;DHT22;32921;53.256;8.198;2022-12-16T09:31:13;-0.20;99.90
47162;DHT22;32921;53.256;8.198;2022-12-16T09:33:57;-0.10;99.90
47162;DHT22;32921;53.256;8.198;2022-12-16T09:36:41;-0.10;99.90
47162;DHT22;32921;53.256;8.198;2022-12-16T09:39:25;0.00;99.90
47162;DHT22;32921;53.256;8.198;2022-12-16T09:45:53;-0.30;99.90
47162;DHT22;32921;53.256;8.198;2022-12-16T09:48:54;-0.30;99.90
47162;DHT22;32921;53.256;8.198;2022-12-16T09:51:41;-0.20;99.90
47162;DHT22;32921;53.256;8.198;2022-12-16T09:54:28;-0.10;99.90
47162;DHT22;32921;53.256;8.198;2022-12-16T09:57:14;-0.20;99.90
47162;DHT22;32921;53.256;8.198;2022-12-16T10:00:05;-0.10;99.90
47162;DHT22;32921;53.256;8.198;2022-12-16T10:02:50;0.00;99.90
47162;DHT22;32921;53.256;8.198;2022-12-16T10:09:22;0.20;99.90
47162;DHT22;32921;53.256;8.198;2022-12-16T10:15:01;0.60;99.90
47162;DHT22;32921;53.256;8.198;2022-12-16T10:17:46;0.70;99.90
47162;DHT22;32921;53.256;8.198;2022-12-16T10:20:44;0.60;99.90
47162;DHT22;32921;53.256;8.198;2022-12-16T10:23:55;0.60;99.90
47162;DHT22;32921;53.256;8.198;2022-12-16T10:27:02;0.40;99.90
47162;DHT22;32921;53.256;8.198;2022-12-16T10:29:47;0.40;99.90
47162;DHT22;32921;53.256;8.198;2022-12-16T10:32:50;0.20;99.90
47162;DHT22;32921;53.256;8.198;2022-12-16T10:35:52;0.30;99.90
47162;DHT22;32921;53.256;8.198;2022-12-16T10:38:43;0.40;99.90
47162;DHT22;32921;53.256;8.198;2022-12-16T10:41:34;0.40;99.90
47162;DHT22;32921;53.256;8.198;2022-12-16T10:44:28;0.30;99.90
47162;DHT22;32921;53.256;8.198;2022-12-16T10:47:12;0.50;99.90
47162;DHT22;32921;53.256;8.198;2022-12-16T10:49:57;0.50;99.90
47162;DHT22;32921;53.256;8.198;2022-12-16T10:53:04;0.60;99.90
47162;DHT22;32921;53.256;8.198;2022-12-16T10:56:17;0.40;99.90
47162;DHT22;32921;53.256;8.198;2022-12-16T10:59:07;0.50;99.90
47162;DHT22;32921;53.256;8.198;2022-12-16T11:02:02;0.70;99.90
47162;DHT22;32921;53.256;8.198;2022-12-16T11:04:47;0.90;99.90
47162;DHT22;32921;53.256;8.198;2022-12-16T11:07:37;1.00;99.90
47162;DHT22;32921;53.256;8.198;2022-12-16T11:10:37;0.60;99.90
47162;DHT22;32921;53.256;8.198;2022-12-16T11:13:27;0.60;99.90
47162;DHT22;32921;53.256;8.198;2022-12-16T11:16:29;0.50;99.90
47162;DHT22;32921;53.256;8.198;2022-12-16T11:22:16;0.60;99.90
47162;DHT22;32921;53.256;8.198;2022-12-16T11:25:20;0.60;99.90
47162;DHT22;32921;53.256;8.198;2022-12-16T11:28:15;0.70;99.90
47162;DHT22;32921;53.256;8.198;2022-12-16T11:31:05;0.70;99.90
47162;DHT22;32921;53.256;8.198;2022-12-16T11:33:52;0.60;99.90
47162;DHT22;32921;53.256;8.198;2022-12-16T11:36:37;0.80;99.90
47162;DHT22;32921;53.256;8.198;2022-12-16T11:39:24;1.10;99.90
47162;DHT22;32921;53.256;8.198;2022-12-16T11:42:21;1.30;99.90
47162;DHT22;32921;53.256;8.198;2022-12-16T11:45:16;1.10;99.90
47162;DHT22;32921;53.256;8.198;2022-12-16T11:48:11;1.20;99.90
47162;DHT22;32921;53.256;8.198;2022-12-16T11:51:01;1.10;99.90
47162;DHT22;32921;53.256;8.198;2022-12-16T11:56:39;1.10;99.90
47162;DHT22;32921;53.256;8.198;2022-12-16T11:59:58;1.30;99.90
47162;DHT22;32921;53.256;8.198;2022-12-16T12:15:41;1.50;99.90
47162;DHT22;32921;53.256;8.198;2022-12-16T12:18:50;1.50;99.90
47162;DHT22;32921;53.256;8.198;2022-12-16T12:21:42;1.40;99.90
47162;DHT22;32921;53.256;8.198;2022-12-16T12:24:46;1.50;99.90
47162;DHT22;32921;53.256;8.198;2022-12-16T12:28:02;1.40;99.90
47162;DHT22;32921;53.256;8.198;2022-12-16T12:30:59;1.40;99.90
47162;DHT22;32921;53.256;8.198;2022-12-16T12:34:07;1.50;99.90
47162;DHT22;32921;53.256;8.198;2022-12-16T12:40:13;2.00;99.90
47162;DHT22;32921;53.256;8.198;2022-12-16T12:43:00;1.70;99.90
47162;DHT22;32921;53.256;8.198;2022-12-16T12:46:10;1.70;99.90
47162;DHT22;32921;53.256;8.198;2022-12-16T12:57:55;2.20;99.90
47162;DHT22;32921;53.256;8.198;2022-12-16T13:00:58;2.10;99.90
47162;DHT22;32921;53.256;8.198;2022-12-16T13:04:00;1.90;99.90
47162;DHT22;32921;53.256;8.198;2022-12-16T13:06:48;1.90;99.90
47162;DHT22;32921;53.256;8.198;2022-12-16T13:09:35;2.00;99.90
47162;DHT22;32921;53.256;8.198;2022-12-16T13:15:18;1.70;99.90
47162;DHT22;32921;53.256;8.198;2022-12-16T13:23:42;2.00;99.90
47162;DHT22;32921;53.256;8.198;2022-12-16T13:26:29;1.80;99.90
47162;DHT22;32921;53.256;8.198;2022-12-16T13:29:42;1.60;99.90
47162;DHT22;32921;53.256;8.198;2022-12-16T13:33:35;1.60;99.90
47162;DHT22;32921;53.256;8.198;2022-12-16T13:36:00;1.60;99.90
47162;DHT22;32921;53.256;8.198;2022-12-16T13:38:49;1.50;99.90
47162;DHT22;32921;53.256;8.198;2022-12-16T13:47:57;1.40;99.90
47162;DHT22;32921;53.256;8.198;2022-12-16T13:50:43;1.30;99.90
47162;DHT22;32921;53.256;8.198;2022-12-16T13:53:31;1.20;99.90
47162;DHT22;32921;53.256;8.198;2022-12-16T13:56:22;1.10;99.90
47162;DHT22;32921;53.256;8.198;2022-12-16T13:59:17;1.20;99.90
47162;DHT22;32921;53.256;8.198;2022-12-16T14:05:22;1.30;99.90
47162;DHT22;32921;53.256;8.198;2022-12-16T14:08:16;1.30;99.90
47162;DHT22;32921;53.256;8.198;2022-12-16T14:11:04;1.30;99.90
47162;DHT22;32921;53.256;8.198;2022-12-16T14:14:10;1.20;99.90
47162;DHT22;32921;53.256;8.198;2022-12-16T14:16:59;1.00;99.90
47162;DHT22;32921;53.256;8.198;2022-12-16T14:20:00;0.70;99.90
47162;DHT22;32921;53.256;8.198;2022-12-16T14:22:57;0.60;99.90
47162;DHT22;32921;53.256;8.198;2022-12-16T14:25:44;0.40;99.90
47162;DHT22;32921;53.256;8.198;2022-12-16T14:28:35;0.30;99.90
47162;DHT22;32921;53.256;8.198;2022-12-16T14:31:39;0.30;99.90
47162;DHT22;32921;53.256;8.198;2022-12-16T14:34:26;0.20;99.90
47162;DHT22;32921;53.256;8.198;2022-12-16T14:39:58;0.30;99.90
47162;DHT22;32921;53.256;8.198;2022-12-16T14:42:42;0.30;99.90
47162;DHT22;32921;53.256;8.198;2022-12-16T14:45:35;0.20;99.90
47162;DHT22;32921;53.256;8.198;2022-12-16T14:48:35;0.20;99.90
47162;DHT22;32921;53.256;8.198;2022-12-16T14:51:46;0.10;99.90
47162;DHT22;32921;53.256;8.198;2022-12-16T14:54:36;0.00;99.90
47162;DHT22;32921;53.256;8.198;2022-12-16T14:57:26;0.10;99.90
47162;DHT22;32921;53.256;8.198;2022-12-16T15:06:06;0.00;99.90
47162;DHT22;32921;53.256;8.198;2022-12-16T15:08:57;-0.20;99.90
47162;DHT22;32921;53.256;8.198;2022-12-16T15:11:45;-0.30;99.90
47162;DHT22;32921;53.256;8.198;2022-12-16T15:14:32;0.00;99.90
47162;DHT22;32921;53.256;8.198;2022-12-16T15:17:32;0.00;99.90
47162;DHT22;32921;53.256;8.198;2022-12-16T15:20:20;-0.10;99.90
47162;DHT22;32921;53.256;8.198;2022-12-16T15:23:24;-0.30;99.90
47162;DHT22;32921;53.256;8.198;2022-12-16T15:26:16;-0.20;99.90
47162;DHT22;32921;53.256;8.198;2022-12-16T15:29:01;-0.10;99.90
47162;DHT22;32921;53.256;8.198;2022-12-16T15:31:45;-0.20;99.90
47162;DHT22;32921;53.256;8.198;2022-12-16T15:37:27;-0.50;99.90
47162;DHT22;32921;53.256;8.198;2022-12-16T15:40:26;-0.60;99.90
47162;DHT22;32921;53.256;8.198;2022-12-16T15:46:26;-0.40;99.90
47162;DHT22;32921;53.256;8.198;2022-12-16T15:49:19;-0.50;99.90
47162;DHT22;32921;53.256;8.198;2022-12-16T15:55:24;-0.50;99.90
47162;DHT22;32921;53.256;8.198;2022-12-16T16:01:11;-0.70;99.90
47162;DHT22;32921;53.256;8.198;2022-12-16T16:03:56;-0.70;99.90
47162;DHT22;32921;53.256;8.198;2022-12-16T16:06:45;-0.70;99.90
47162;DHT22;32921;53.256;8.198;2022-12-16T16:09:31;-0.80;99.90
47162;DHT22;32921;53.256;8.198;2022-12-16T16:12:18;-0.70;99.90
47162;DHT22;32921;53.256;8.198;2022-12-16T16:15:04;-0.80;99.90
47162;DHT22;32921;53.256;8.198;2022-12-16T16:17:56;-0.90;99.90
47162;DHT22;32921;53.256;8.198;2022-12-16T16:20:41;-0.90;99.90
47162;DHT22;32921;53.256;8.198;2022-12-16T16:23:25;-0.90;99.90
47162;DHT22;32921;53.256;8.198;2022-12-16T16:26:14;-0.80;99.90
47162;DHT22;32921;53.256;8.198;2022-12-16T16:29:00;-0.80;99.90
47162;DHT22;32921;53.256;8.198;2022-12-16T16:31:44;-0.80;99.90
47162;DHT22;32921;53.256;8.198;2022-12-16T16:34:28;-0.80;99.90
47162;DHT22;32921;53.256;8.198;2022-12-16T16:37:15;-0.80;99.90
47162;DHT22;32921;53.256;8.198;2022-12-16T16:40:00;-0.60;99.90
47162;DHT22;32921;53.256;8.198;2022-12-16T16:42:44;-0.60;99.90
47162;DHT22;32921;53.256;8.198;2022-12-16T16:45:28;-0.50;99.90
47162;DHT22;32921;53.256;8.198;2022-12-16T16:48:17;-0.40;99.90
47162;DHT22;32921;53.256;8.198;2022-12-16T16:51:02;-0.40;99.90
47162;DHT22;32921;53.256;8.198;2022-12-16T16:53:46;-0.40;99.90
47162;DHT22;32921;53.256;8.198;2022-12-16T16:56:32;-0.50;99.90
47162;DHT22;32921;53.256;8.198;2022-12-16T16:59:17;-0.70;99.90
47162;DHT22;32921;53.256;8.198;2022-12-16T17:02:20;-0.90;99.90
47162;DHT22;32921;53.256;8.198;2022-12-16T17:05:05;-1.10;99.90
47162;DHT22;32921;53.256;8.198;2022-12-16T17:07:50;-1.20;99.90
47162;DHT22;32921;53.256;8.198;2022-12-16T17:10:34;-0.90;99.90
47162;DHT22;32921;53.256;8.198;2022-12-16T17:13:18;-1.00;99.90
47162;DHT22;32921;53.256;8.198;2022-12-16T17:16:03;-1.10;99.90
47162;DHT22;32921;53.256;8.198;2022-12-16T17:18:47;-1.00;99.90
47162;DHT22;32921;53.256;8.198;2022-12-16T17:21:31;-1.00;99.90
47162;DHT22;32921;53.256;8.198;2022-12-16T17:24:15;-0.80;99.90
47162;DHT22;32921;53.256;8.198;2022-12-16T17:27:08;-0.70;99.90
47162;DHT22;32921;53.256;8.198;2022-12-16T17:29:56;-0.90;99.90
47162;DHT22;32921;53.256;8.198;2022-12-16T17:32:40;-1.10;99.90
47162;DHT22;32921;53.256;8.198;2022-12-16T17:35:24;-1.30;99.90
47162;DHT22;32921;53.256;8.198;2022-12-16T17:38:10;-1.40;99.90
47162;DHT22;32921;53.256;8.198;2022-12-16T17:40:55;-1.30;99.90
47162;DHT22;32921;53.256;8.198;2022-12-16T17:43:39;-1.00;99.90
47162;DHT22;32921;53.256;8.198;2022-12-16T17:46:23;-1.10;99.90
47162;DHT22;32921;53.256;8.198;2022-12-16T17:49:09;-1.20;99.90
47162;DHT22;32921;53.256;8.198;2022-12-16T17:51:53;-1.40;99.90
47162;DHT22;32921;53.256;8.198;2022-12-16T17:54:37;-1.60;99.90
47162;DHT22;32921;53.256;8.198;2022-12-16T17:57:21;-1.50;99.90
47162;DHT22;32921;53.256;8.198;2022-12-16T18:00:06;-1.60;99.90
47162;DHT22;32921;53.256;8.198;2022-12-16T18:02:50;-1.60;99.90
47162;DHT22;32921;53.256;8.198;2022-12-16T18:05:34;-1.60;99.90
47162;DHT22;32921;53.256;8.198;2022-12-16T18:08:18;-1.60;99.90
47162;DHT22;32921;53.256;8.198;2022-12-16T18:11:02;-1.30;99.90
47162;DHT22;32921;53.256;8.198;2022-12-16T18:13:46;-1.30;99.90
47162;DHT22;32921;53.256;8.198;2022-12-16T18:16:31;-1.30;99.90
47162;DHT22;32921;53.256;8.198;2022-12-16T18:19:15;-1.10;99.90
47162;DHT22;32921;53.256;8.198;2022-12-16T18:22:00;-0.90;99.90
47162;DHT22;32921;53.256;8.198;2022-12-16T18:24:44;-0.80;99.90
47162;DHT22;32921;53.256;8.198;2022-12-16T18:27:28;-0.80;99.90
47162;DHT22;32921;53.256;8.198;2022-12-16T18:30:13;-0.80;99.90
47162;DHT22;32921;53.256;8.198;2022-12-16T18:32:57;-0.80;99.90
47162;DHT22;32921;53.256;8.198;2022-12-16T18:35:41;-0.80;99.90
47162;DHT22;32921;53.256;8.198;2022-12-16T18:38:26;-0.80;99.90
47162;DHT22;32921;53.256;8.198;2022-12-16T18:41:16;-0.90;99.90
47162;DHT22;32921;53.256;8.198;2022-12-16T18:44:00;-0.90;99.90
47162;DHT22;32921;53.256;8.198;2022-12-16T18:46:45;-1.00;99.90
47162;DHT22;32921;53.256;8.198;2022-12-16T18:49:30;-1.10;99.90
47162;DHT22;32921;53.256;8.198;2022-12-16T18:52:14;-1.00;99.90
47162;DHT22;32921;53.256;8.198;2022-12-16T18:54:58;-1.00;99.90
47162;DHT22;32921;53.256;8.198;2022-12-16T18:57:42;-1.00;99.90
47162;DHT22;32921;53.256;8.198;2022-12-16T19:00:26;-1.10;99.90
47162;DHT22;32921;53.256;8.198;2022-12-16T19:03:10;-1.10;99.90
47162;DHT22;32921;53.256;8.198;2022-12-16T19:05:55;-1.40;99.90
47162;DHT22;32921;53.256;8.198;2022-12-16T19:08:39;-1.70;99.90